Time,TemperatureF,DewpointF,PressureIn,WindDirection,WindDirectionDegrees,WindSpeedMPH,WindSpeedGustMPH,Humidity,HourlyPrecipIn,Conditions,Clouds,dailyrainin,SoftwareType,DateUTC
2013-07-13 00:00:00,57.0,-99.9,-100.00,SSE,156,7.0,17.0,-999,-99.99,,,-99.99,,2013-07-13 06:00:00,
2013-07-13 00:43:00,57.0,-99.9,-100.00,SSE,156,7.0,17.0,-999,-99.99,,,-99.99,,2013-07-13 06:43:00,
2013-07-13 00:52:00,57.0,-99.9,-100.00,SSE,156,7.0,17.0,-999,-99.99,,,-99.99,,2013-07-13 06:52:00,
2013-07-13 01:00:00,56.0,-99.9,-100.00,SSE,156,6.0,8.0,-999,-99.99,,,-99.99,,2013-07-13 07:00:00,
2013-07-13 01:44:00,56.0,-99.9,-100.00,SSE,156,6.0,8.0,-999,-99.99,,,-99.99,,2013-07-13 07:44:00,
2013-07-13 01:53:00,56.0,-99.9,-100.00,SSE,156,6.0,8.0,-999,-99.99,,,-99.99,,2013-07-13 07:53:00,
2013-07-13 02:00:00,56.0,-99.9,-100.00,ESE,122,4.0,4.0,-999,-99.99,,,-99.99,,2013-07-13 08:00:00,
2013-07-13 02:43:00,56.0,-99.9,-100.00,ESE,122,4.0,4.0,-999,-99.99,,,-99.99,,2013-07-13 08:43:00,
2013-07-13 02:52:00,56.0,-99.9,-100.00,ESE,122,4.0,4.0,-999,-99.99,,,-99.99,,2013-07-13 08:52:00,
2013-07-13 03:00:00,57.0,-99.9,-100.00,SE,142,5.0,5.0,-999,-99.99,,,-99.99,,2013-07-13 09:00:00,
2013-07-13 03:43:00,57.0,-99.9,-100.00,SE,142,5.0,5.0,-999,-99.99,,,-99.99,,2013-07-13 09:43:00,
2013-07-13 03:53:00,57.0,-99.9,-100.00,SE,142,5.0,5.0,-999,-99.99,,,-99.99,,2013-07-13 09:53:00,
2013-07-13 04:00:00,53.0,-99.9,-100.00,ESE,110,4.0,4.0,-999,-99.99,,,-99.99,,2013-07-13 10:00:00,
2013-07-13 04:43:00,53.0,-99.9,-100.00,ESE,110,4.0,4.0,-999,-99.99,,,-99.99,,2013-07-13 10:43:00,
2013-07-13 04:52:00,53.0,-99.9,-100.00,ESE,110,4.0,4.0,-999,-99.99,,,-99.99,,2013-07-13 10:52:00,
2013-07-13 05:00:00,51.0,-99.9,-100.00,East,91,5.0,7.0,-999,-99.99,,,-99.99,,2013-07-13 11:00:00,
2013-07-13 06:00:00,54.0,-99.9,-100.00,SSE,153,7.0,8.0,-999,-99.99,,,-99.99,,2013-07-13 12:00:00,
2013-07-13 06:43:00,54.0,-99.9,-100.00,SSE,153,7.0,8.0,-999,-99.99,,,-99.99,,2013-07-13 12:43:00,
2013-07-13 06:52:00,54.0,-99.9,-100.00,SSE,153,7.0,8.0,-999,-99.99,,,-99.99,,2013-07-13 12:52:00,
2013-07-13 07:00:00,56.0,-99.9,-100.00,ESE,123,4.0,4.0,-999,-99.99,,,-99.99,,2013-07-13 13:00:00,
2013-07-13 07:43:00,56.0,-99.9,-100.00,ESE,123,4.0,4.0,-999,-99.99,,,-99.99,,2013-07-13 13:43:00,
2013-07-13 07:53:00,56.0,-99.9,-100.00,ESE,123,4.0,4.0,-999,-99.99,,,-99.99,,2013-07-13 13:53:00,
2013-07-13 08:00:00,61.0,-99.9,-100.00,ESE,111,4.0,4.0,-999,-99.99,,,-99.99,,2013-07-13 14:00:00,
2013-07-13 08:53:00,61.0,-99.9,-100.00,ESE,111,4.0,4.0,-999,-99.99,,,-99.99,,2013-07-13 14:53:00,
2013-07-13 09:00:00,63.0,-99.9,-100.00,SSE,160,4.0,9.0,-999,-99.99,,,-99.99,,2013-07-13 15:00:00,
2013-07-13 09:43:00,63.0,-99.9,-100.00,SSE,160,4.0,9.0,-999,-99.99,,,-99.99,,2013-07-13 15:43:00,
2013-07-13 09:53:00,63.0,-99.9,-100.00,SSE,160,4.0,9.0,-999,-99.99,,,-99.99,,2013-07-13 15:53:00,
2013-07-13 10:00:00,68.0,-99.9,-100.00,SW,228,5.0,6.0,-999,-99.99,,,-99.99,,2013-07-13 16:00:00,
2013-07-13 10:43:00,68.0,-99.9,-100.00,SW,228,5.0,6.0,-999,-99.99,,,-99.99,,2013-07-13 16:43:00,
2013-07-13 10:53:00,68.0,-99.9,-100.00,SW,228,5.0,6.0,-999,-99.99,,,-99.99,,2013-07-13 16:53:00,
2013-07-13 11:00:00,69.0,-99.9,-100.00,WNW,293,9.0,12.0,-999,-99.99,,,-99.99,,2013-07-13 17:00:00,
2013-07-13 11:43:00,69.0,-99.9,-100.00,WNW,293,9.0,12.0,-999,-99.99,,,-99.99,,2013-07-13 17:43:00,
2013-07-13 11:52:00,69.0,-99.9,-100.00,WNW,293,9.0,12.0,-999,-99.99,,,-99.99,,2013-07-13 17:52:00,
2013-07-13 12:00:00,73.0,-99.9,-100.00,NNW,327,2.0,2.0,-999,-99.99,,,-99.99,,2013-07-13 18:00:00,
2013-07-13 12:44:00,73.0,-99.9,-100.00,NNW,327,2.0,2.0,-999,-99.99,,,-99.99,,2013-07-13 18:44:00,
2013-07-13 12:53:00,73.0,-99.9,-100.00,NNW,327,2.0,2.0,-999,-99.99,,,-99.99,,2013-07-13 18:53:00,
2013-07-13 13:00:00,73.0,-99.9,-100.00,WNW,302,6.0,12.0,-999,-99.99,,,-99.99,,2013-07-13 19:00:00,
2013-07-13 13:52:00,73.0,-99.9,-100.00,WNW,302,6.0,12.0,-999,-99.99,,,-99.99,,2013-07-13 19:52:00,
2013-07-13 14:00:00,76.0,-99.9,-100.00,NNW,332,2.0,8.0,-999,-99.99,,,-99.99,,2013-07-13 20:00:00,
2013-07-13 14:43:00,76.0,-99.9,-100.00,NNW,332,2.0,8.0,-999,-99.99,,,-99.99,,2013-07-13 20:43:00,
2013-07-13 14:53:00,76.0,-99.9,-100.00,NNW,332,2.0,8.0,-999,-99.99,,,-99.99,,2013-07-13 20:53:00,
2013-07-13 16:00:00,76.0,-99.9,-100.00,NNW,346,8.0,13.0,-999,-99.99,,,-99.99,,2013-07-13 22:00:00,
2013-07-13 16:43:00,76.0,-99.9,-100.00,NNW,346,8.0,13.0,-999,-99.99,,,-99.99,,2013-07-13 22:43:00,
2013-07-13 16:53:00,76.0,-99.9,-100.00,NNW,346,8.0,13.0,-999,-99.99,,,-99.99,,2013-07-13 22:53:00,
2013-07-13 17:00:00,73.0,-99.9,-100.00,North,3,8.0,13.0,-999,-99.99,,,-99.99,,2013-07-13 23:00:00,
2013-07-13 17:53:00,73.0,-99.9,-100.00,North,3,8.0,13.0,-999,-99.99,,,-99.99,,2013-07-13 23:53:00,
2013-07-13 18:00:00,73.0,-99.9,-100.00,NNE,26,10.0,12.0,-999,-99.99,,,-99.99,,2013-07-14 00:00:00,
2013-07-13 18:42:00,73.0,-99.9,-100.00,NNE,26,10.0,12.0,-999,-99.99,,,-99.99,,2013-07-14 00:42:00,
2013-07-13 18:53:00,73.0,-99.9,-100.00,NNE,26,10.0,12.0,-999,-99.99,,,-99.99,,2013-07-14 00:53:00,
2013-07-13 19:00:00,59.0,-99.9,-100.00,SE,134,19.0,26.0,-999,-99.99,,,-99.99,,2013-07-14 01:00:00,
2013-07-13 20:00:00,60.0,-99.9,-100.00,ESE,110,12.0,12.0,-999,-99.99,,,-99.99,,2013-07-14 02:00:00,
2013-07-13 20:32:00,60.0,-99.9,-100.00,ESE,110,12.0,12.0,-999,-99.99,,,-99.99,,2013-07-14 02:32:00,
2013-07-13 20:43:00,60.0,-99.9,-100.00,ESE,110,12.0,12.0,-999,-99.99,,,-99.99,,2013-07-14 02:43:00,
2013-07-13 20:53:00,60.0,-99.9,-100.00,ESE,110,12.0,12.0,-999,-99.99,,,-99.99,,2013-07-14 02:53:00,
2013-07-13 21:00:00,62.0,-99.9,-100.00,WNW,301,18.0,18.0,-999,-99.99,,,-99.99,,2013-07-14 03:00:00,
2013-07-13 21:43:00,62.0,-99.9,-100.00,WNW,301,18.0,18.0,-999,-99.99,,,-99.99,,2013-07-14 03:43:00,
2013-07-13 21:53:00,62.0,-99.9,-100.00,WNW,301,18.0,18.0,-999,-99.99,,,-99.99,,2013-07-14 03:53:00,
2013-07-13 22:00:00,58.0,-99.9,-100.00,ENE,71,3.0,5.0,-999,-99.99,,,-99.99,,2013-07-14 04:00:00,
2013-07-13 22:32:00,58.0,-99.9,-100.00,ENE,71,3.0,5.0,-999,-99.99,,,-99.99,,2013-07-14 04:32:00,
2013-07-13 22:43:00,58.0,-99.9,-100.00,ENE,71,3.0,5.0,-999,-99.99,,,-99.99,,2013-07-14 04:43:00,
2013-07-13 22:54:00,58.0,-99.9,-100.00,ENE,71,3.0,5.0,-999,-99.99,,,-99.99,,2013-07-14 04:54:00,
2013-07-13 23:00:00,57.0,-99.9,-100.00,SSE,150,9.0,10.0,-999,-99.99,,,-99.99,,2013-07-14 05:00:00,
2013-07-13 23:32:00,57.0,-99.9,-100.00,SSE,150,9.0,10.0,-999,-99.99,,,-99.99,,2013-07-14 05:32:00,
2013-07-13 23:43:00,57.0,-99.9,-100.00,SSE,150,9.0,10.0,-999,-99.99,,,-99.99,,2013-07-14 05:43:00,
2013-07-13 23:53:00,57.0,-99.9,-100.00,SSE,150,9.0,10.0,-999,-99.99,,,-99.99,,2013-07-14 05:53:00,